createdAt,value
2023-04-01T00:01:49.194Z,5.80
2023-04-01T00:04:16.905Z,5.80
2023-04-01T00:06:44.042Z,5.70
2023-04-01T00:09:11.078Z,5.70
2023-04-01T00:11:38.171Z,5.70
2023-04-01T00:14:05.480Z,5.70
2023-04-01T00:16:32.683Z,5.70
2023-04-01T00:21:39.955Z,5.80
2023-04-01T00:24:07.047Z,5.80
2023-04-01T00:26:34.049Z,5.80
2023-04-01T00:29:01.829Z,5.70
2023-04-01T00:31:28.820Z,5.70
2023-04-01T00:33:55.798Z,5.60
2023-04-01T00:36:24.310Z,5.60
2023-04-01T00:38:52.805Z,5.50
2023-04-01T00:41:22.767Z,5.50
2023-04-01T00:43:54.385Z,5.50
2023-04-01T00:46:21.488Z,5.40
2023-04-01T00:48:51.436Z,5.50
2023-04-01T00:51:30.661Z,5.50
2023-04-01T00:54:00.340Z,5.60
2023-04-01T00:56:33.297Z,5.60
2023-04-01T00:59:09.369Z,5.70
2023-04-01T01:01:37.038Z,5.70
2023-04-01T01:04:04.818Z,5.80
2023-04-01T01:06:40.163Z,5.80
2023-04-01T01:09:15.878Z,5.80
2023-04-01T01:11:48.652Z,5.80
2023-04-01T01:14:33.682Z,5.80
2023-04-01T01:17:16.155Z,5.80
2023-04-01T01:20:12.789Z,5.90
2023-04-01T01:22:53.343Z,5.90
2023-04-01T01:25:51.618Z,6.10
2023-04-01T01:28:48.981Z,5.90
2023-04-01T01:31:34.414Z,6.00
2023-04-01T01:34:21.014Z,6.00
2023-04-01T01:36:54.369Z,6.00
2023-04-01T01:39:27.752Z,5.90
2023-04-01T01:41:57.238Z,5.80
2023-04-01T01:44:26.784Z,5.80
2023-04-01T01:46:53.770Z,5.80
2023-04-01T01:49:21.756Z,5.80
2023-04-01T01:51:49.257Z,5.80
2023-04-01T01:54:18.289Z,5.80
2023-04-01T01:56:52.049Z,5.80
2023-04-01T01:59:22.189Z,5.80
2023-04-01T02:01:53.980Z,5.90
2023-04-01T02:04:22.145Z,5.90
2023-04-01T02:06:59.174Z,5.90
2023-04-01T02:09:26.201Z,5.80
2023-04-01T02:11:58.321Z,5.80
2023-04-01T02:14:27.167Z,5.80
2023-04-01T02:17:03.859Z,5.80
2023-04-01T02:19:44.569Z,5.80
2023-04-01T02:22:17.778Z,5.70
2023-04-01T02:24:46.568Z,5.60
2023-04-01T02:27:13.999Z,5.50
2023-04-01T02:29:40.995Z,5.50
2023-04-01T02:32:09.931Z,5.50
2023-04-01T02:34:37.826Z,5.40
2023-04-01T02:37:05.111Z,5.40
2023-04-01T02:39:32.153Z,5.40
2023-04-01T02:41:59.283Z,5.40
2023-04-01T02:44:26.329Z,5.40
2023-04-01T02:46:53.996Z,5.30
2023-04-01T02:49:21.159Z,5.30
2023-04-01T02:51:48.312Z,5.30
2023-04-01T02:54:15.448Z,5.30
2023-04-01T02:56:42.484Z,5.30
2023-04-01T02:59:09.665Z,5.40
2023-04-01T03:01:36.833Z,5.40
2023-04-01T03:04:04.033Z,5.40
2023-04-01T03:06:31.300Z,5.40
2023-04-01T03:08:58.598Z,5.30
2023-04-01T03:11:26.884Z,5.20
2023-04-01T03:13:53.893Z,5.20
2023-04-01T03:16:21.046Z,5.10
2023-04-01T03:18:50.503Z,5.10
2023-04-01T03:21:20.230Z,5.10
2023-04-01T03:23:47.181Z,5.20
2023-04-01T03:26:14.692Z,5.20
2023-04-01T03:28:41.727Z,5.30
2023-04-01T03:31:09.063Z,5.30
2023-04-01T03:33:36.184Z,5.30
2023-04-01T03:36:07.468Z,5.30
2023-04-01T03:38:37.460Z,5.30
2023-04-01T03:41:04.922Z,5.30
2023-04-01T03:43:31.948Z,5.30
2023-04-01T03:45:59.572Z,5.40
2023-04-01T03:48:27.092Z,5.40
2023-04-01T03:50:54.067Z,5.50
2023-04-01T03:53:21.133Z,5.50
2023-04-01T03:55:48.289Z,5.50
2023-04-01T03:58:15.599Z,5.40
2023-04-01T04:00:42.606Z,5.40
2023-04-01T04:03:09.785Z,5.30
2023-04-01T04:05:36.777Z,5.30
2023-04-01T04:08:04.300Z,5.30
2023-04-01T04:10:31.412Z,5.40
2023-04-01T04:12:58.349Z,5.40
2023-04-01T04:15:25.355Z,5.40
2023-04-01T04:17:52.552Z,5.40
2023-04-01T04:20:19.627Z,5.30
2023-04-01T04:22:46.566Z,5.30
2023-04-01T04:25:13.572Z,5.30
2023-04-01T04:27:40.982Z,5.30
2023-04-01T04:30:08.962Z,5.30
2023-04-01T04:32:36.161Z,5.30
2023-04-01T04:35:03.245Z,5.30
2023-04-01T04:37:30.331Z,5.30
2023-04-01T04:39:57.276Z,5.30
2023-04-01T04:42:24.267Z,5.30
2023-04-01T04:44:51.362Z,5.30
2023-04-01T04:47:18.461Z,5.30
2023-04-01T04:49:45.596Z,5.30
2023-04-01T04:52:12.648Z,5.40
2023-04-01T04:54:39.600Z,5.40
2023-04-01T04:57:06.692Z,5.30
2023-04-01T04:59:33.696Z,5.30
2023-04-01T05:02:00.751Z,5.30
2023-04-01T05:04:27.780Z,5.30
2023-04-01T05:06:54.847Z,5.20
2023-04-01T05:09:21.897Z,5.20
2023-04-01T05:11:48.995Z,5.00
2023-04-01T05:14:16.873Z,5.00
2023-04-01T05:16:43.868Z,5.00
2023-04-01T05:19:11.005Z,5.00
2023-04-01T05:21:37.970Z,5.00
2023-04-01T05:24:08.321Z,5.10
2023-04-01T05:26:36.032Z,5.10
2023-04-01T05:29:03.022Z,5.10
2023-04-01T05:31:30.125Z,5.20
2023-04-01T05:33:57.463Z,5.30
2023-04-01T05:36:24.474Z,5.30
2023-04-01T05:38:51.761Z,5.30
2023-04-01T05:41:18.726Z,5.30
2023-04-01T05:43:45.834Z,5.40
2023-04-01T05:46:12.954Z,5.40
2023-04-01T05:48:40.177Z,5.40
2023-04-01T05:51:07.295Z,5.50
2023-04-01T05:53:34.269Z,5.60
2023-04-01T05:56:05.238Z,5.70
2023-04-01T05:58:32.764Z,5.90
2023-04-01T06:01:10.126Z,5.90
2023-04-01T06:03:39.899Z,5.90
2023-04-01T06:06:19.583Z,6.00
2023-04-01T06:08:46.595Z,6.10
2023-04-01T06:11:31.459Z,6.20
2023-04-01T06:14:07.074Z,6.20
2023-04-01T06:16:43.046Z,6.40
2023-04-01T06:19:41.634Z,6.50
2023-04-01T06:22:41.022Z,6.60
2023-04-01T06:25:42.710Z,6.60
2023-04-01T06:28:18.474Z,6.70
2023-04-01T06:31:01.540Z,7.00
2023-04-01T06:33:31.910Z,7.70
2023-04-01T06:36:05.135Z,8.10
2023-04-01T06:38:47.222Z,8.60
2023-04-01T06:41:29.657Z,9.40
2023-04-01T06:44:17.180Z,9.80
2023-04-01T06:47:22.857Z,10.20
2023-04-01T06:50:11.957Z,10.30
2023-04-01T06:52:50.823Z,9.90
2023-04-01T06:55:17.884Z,9.40
2023-04-01T06:57:56.111Z,9.50
2023-04-01T07:00:52.080Z,9.70
2023-04-01T07:03:31.732Z,9.80
2023-04-01T07:06:03.656Z,9.60
2023-04-01T07:08:34.534Z,9.50
2023-04-01T07:11:07.189Z,9.60
2023-04-01T07:14:03.639Z,9.20
2023-04-01T07:16:46.293Z,9.10
2023-04-01T07:19:43.175Z,9.30
2023-04-01T07:22:41.973Z,9.30
2023-04-01T07:25:39.583Z,9.30
2023-04-01T07:28:15.605Z,9.20
2023-04-01T07:31:10.303Z,9.30
2023-04-01T07:34:02.728Z,9.40
2023-04-01T07:37:09.385Z,9.20
2023-04-01T07:39:48.449Z,9.10
2023-04-01T07:42:41.713Z,9.00
2023-04-01T07:45:46.525Z,8.80
2023-04-01T07:48:27.001Z,8.70
2023-04-01T07:51:28.946Z,8.60
2023-04-01T07:54:14.577Z,8.50
2023-04-01T07:57:11.593Z,8.50
2023-04-01T07:59:41.312Z,8.50
2023-04-01T08:02:45.607Z,8.60
2023-04-01T08:05:41.413Z,8.60
2023-04-01T08:08:21.394Z,8.50
2023-04-01T08:11:09.393Z,8.60
2023-04-01T08:13:47.652Z,8.60
2023-04-01T08:16:40.798Z,8.40
2023-04-01T08:19:53.154Z,8.30
2023-04-01T08:22:43.906Z,8.30
2023-04-01T08:25:19.433Z,8.20
2023-04-01T08:28:04.336Z,8.30
2023-04-01T08:30:57.441Z,8.30
2023-04-01T08:33:28.372Z,8.10
2023-04-01T08:36:10.383Z,8.10
2023-04-01T08:38:40.448Z,8.10
2023-04-01T08:41:16.456Z,8.10
2023-04-01T08:44:16.030Z,8.10
2023-04-01T08:47:19.990Z,8.00
2023-04-01T08:49:49.954Z,8.00
2023-04-01T08:52:16.880Z,7.90
2023-04-01T08:54:58.749Z,7.90
2023-04-01T08:57:25.693Z,7.90
2023-04-01T09:00:18.437Z,7.90
2023-04-01T09:03:00.988Z,7.90
2023-04-01T09:05:48.637Z,7.80
2023-04-01T09:08:28.431Z,7.90
2023-04-01T09:11:13.399Z,7.90
2023-04-01T09:14:08.340Z,8.00
2023-04-01T09:16:53.753Z,7.80
2023-04-01T09:19:41.962Z,8.00
2023-04-01T09:22:27.615Z,8.10
2023-04-01T09:25:21.393Z,8.10
2023-04-01T09:28:11.003Z,8.10
2023-04-01T09:30:55.941Z,8.00
2023-04-01T09:34:09.151Z,7.90
2023-04-01T09:36:49.253Z,7.80
2023-04-01T09:39:46.748Z,7.60
2023-04-01T09:42:50.631Z,7.50
2023-04-01T09:45:32.768Z,7.50
2023-04-01T09:48:13.941Z,7.40
2023-04-01T09:51:07.022Z,7.40
2023-04-01T09:54:05.766Z,7.30
2023-04-01T09:57:06.424Z,7.30
2023-04-01T09:59:36.568Z,7.40
2023-04-01T10:02:42.997Z,7.50
2023-04-01T10:05:31.656Z,7.60
2023-04-01T10:08:36.042Z,7.60
2023-04-01T10:11:27.405Z,7.60
2023-04-01T10:14:16.584Z,7.70
2023-04-01T10:17:04.880Z,7.60
2023-04-01T10:19:59.661Z,7.70
2023-04-01T10:22:45.009Z,7.70
2023-04-01T10:25:31.197Z,7.60
2023-04-01T10:28:01.509Z,7.60
2023-04-01T10:30:36.741Z,7.60
2023-04-01T10:33:06.789Z,7.50
2023-04-01T10:36:01.607Z,7.60
2023-04-01T10:38:34.210Z,7.60
2023-04-01T10:41:32.594Z,7.60
2023-04-01T10:44:30.517Z,7.60
2023-04-01T10:47:30.980Z,7.70
2023-04-01T10:50:13.728Z,7.60
2023-04-01T10:52:59.099Z,7.60
2023-04-01T10:55:47.333Z,7.50
2023-04-01T10:58:32.972Z,7.50
2023-04-01T11:01:21.242Z,7.50
2023-04-01T11:04:21.965Z,7.50
2023-04-01T11:07:07.800Z,7.60
2023-04-01T11:10:18.849Z,7.60
2023-04-01T11:13:18.576Z,7.60
2023-04-01T11:15:54.164Z,7.60
2023-04-01T11:18:42.078Z,7.60
2023-04-01T11:21:46.546Z,7.60
2023-04-01T11:24:19.336Z,7.70
2023-04-01T11:27:11.057Z,7.70
2023-04-01T11:29:58.779Z,7.90
2023-04-01T11:32:33.109Z,8.00
2023-04-01T11:35:13.838Z,8.00
2023-04-01T11:37:47.605Z,8.00
2023-04-01T11:40:24.557Z,8.10
2023-04-01T11:43:26.182Z,8.20
2023-04-01T11:46:24.666Z,8.20
2023-04-01T11:49:39.098Z,8.40
2023-04-01T11:52:32.272Z,8.40
2023-04-01T11:55:26.472Z,8.50
2023-04-01T11:58:20.727Z,8.40
2023-04-01T12:01:25.848Z,8.30
2023-04-01T12:03:58.729Z,8.30
2023-04-01T12:06:50.942Z,8.20
2023-04-01T12:09:52.989Z,8.10
2023-04-01T12:12:28.612Z,8.20
2023-04-01T12:15:18.987Z,8.20
2023-04-01T12:18:15.041Z,8.10
2023-04-01T12:20:58.815Z,8.10
2023-04-01T12:24:02.910Z,8.00
2023-04-01T12:26:47.697Z,7.90
2023-04-01T12:29:23.449Z,7.90
2023-04-01T12:32:12.455Z,8.00
2023-04-01T12:35:20.540Z,8.00
2023-04-01T12:38:13.886Z,8.00
2023-04-01T12:40:51.521Z,8.10
2023-04-01T12:43:46.290Z,8.30
2023-04-01T12:46:22.285Z,8.30
2023-04-01T12:49:09.513Z,8.40
2023-04-01T12:51:36.527Z,8.50
2023-04-01T12:54:30.719Z,8.60
2023-04-01T12:57:18.600Z,8.60
2023-04-01T13:00:13.903Z,8.70
2023-04-01T13:03:01.799Z,8.90
2023-04-01T13:06:02.929Z,8.90
2023-04-01T13:08:39.082Z,8.90
2023-04-01T13:11:20.025Z,8.90
2023-04-01T13:13:50.043Z,8.80
2023-04-01T13:16:28.596Z,8.80
2023-04-01T13:19:01.618Z,9.00
2023-04-01T13:21:52.589Z,9.10
2023-04-01T13:24:52.265Z,9.00
2023-04-01T13:27:52.573Z,9.00
2023-04-01T13:30:25.667Z,9.00
2023-04-01T13:33:13.745Z,9.10
2023-04-01T13:36:15.876Z,9.20
2023-04-01T13:38:59.941Z,9.20
2023-04-01T13:41:48.936Z,9.00
2023-04-01T13:44:18.651Z,9.00
2023-04-01T13:47:07.583Z,9.10
2023-04-01T13:49:48.023Z,9.10
2023-04-01T13:52:26.428Z,9.30
2023-04-01T13:55:02.307Z,9.40
2023-04-01T13:57:59.175Z,9.50
2023-04-01T14:00:33.630Z,9.40
2023-04-01T14:03:40.327Z,9.20
2023-04-01T14:06:24.467Z,9.30
2023-04-01T14:09:12.810Z,9.40
2023-04-01T14:11:45.858Z,9.50
2023-04-01T14:14:51.733Z,9.40
2023-04-01T14:17:45.795Z,9.30
2023-04-01T14:20:21.736Z,9.10
2023-04-01T14:23:07.032Z,9.00
2023-04-01T14:26:03.479Z,9.00
2023-04-01T14:28:49.020Z,9.00
2023-04-01T14:31:24.951Z,9.10
2023-04-01T14:34:02.429Z,9.20
2023-04-01T14:36:55.915Z,9.30
2023-04-01T14:40:05.246Z,9.20
2023-04-01T14:42:50.344Z,9.30
2023-04-01T14:45:36.057Z,9.40
2023-04-01T14:48:25.500Z,9.50
2023-04-01T14:50:55.676Z,9.50
2023-04-01T14:53:30.647Z,9.40
2023-04-01T14:56:06.351Z,9.50
2023-04-01T14:58:58.308Z,9.40
2023-04-01T15:02:02.940Z,9.30
2023-04-01T15:04:45.069Z,9.00
2023-04-01T15:07:37.627Z,8.80
2023-04-01T15:10:20.897Z,8.80
2023-04-01T15:13:13.810Z,8.70
2023-04-01T15:15:59.663Z,8.70
2023-04-01T15:19:02.384Z,8.80
2023-04-01T15:21:47.924Z,8.70
2023-04-01T15:24:27.987Z,8.60
2023-04-01T15:27:22.668Z,8.40
2023-04-01T15:30:12.984Z,8.30
2023-04-01T15:33:08.081Z,8.20
2023-04-01T15:35:45.053Z,8.20
2023-04-01T15:38:27.718Z,8.20
2023-04-01T15:41:20.655Z,8.10
2023-04-01T15:43:53.528Z,8.20
2023-04-01T15:47:01.394Z,8.20
2023-04-01T15:49:47.884Z,8.10
2023-04-01T15:52:52.377Z,8.00
2023-04-01T15:55:25.243Z,8.00
2023-04-01T15:58:25.394Z,7.90
2023-04-01T16:01:16.200Z,7.80
2023-04-01T16:03:46.304Z,7.70
2023-04-01T16:06:13.348Z,7.70
2023-04-01T16:09:04.716Z,7.70
2023-04-01T16:11:43.961Z,7.80
2023-04-01T16:14:20.580Z,7.80
2023-04-01T16:17:13.745Z,7.80
2023-04-01T16:20:11.337Z,7.70
2023-04-01T16:23:05.571Z,7.70
2023-04-01T16:25:48.641Z,7.70
2023-04-01T16:28:20.707Z,7.70
2023-04-01T16:30:50.722Z,7.60
2023-04-01T16:33:29.206Z,7.60
2023-04-01T16:36:09.417Z,7.60
2023-04-01T16:38:54.065Z,7.50
2023-04-01T16:41:42.197Z,7.60
2023-04-01T16:44:28.439Z,7.60
2023-04-01T16:47:12.207Z,7.60
2023-04-01T16:49:52.129Z,7.60
2023-04-01T16:52:44.557Z,7.50
2023-04-01T16:55:21.720Z,7.50
2023-04-01T16:58:00.692Z,7.50
2023-04-01T17:00:51.268Z,7.50
2023-04-01T17:03:33.633Z,7.50
2023-04-01T17:06:22.622Z,7.40
2023-04-01T17:09:10.831Z,7.40
2023-04-01T17:11:41.127Z,7.40
2023-04-01T17:14:32.543Z,7.40
2023-04-01T17:17:16.966Z,7.30
2023-04-01T17:19:47.513Z,7.30
2023-04-01T17:22:34.785Z,7.30
2023-04-01T17:25:25.325Z,7.20
2023-04-01T17:28:11.410Z,7.20
2023-04-01T17:30:56.418Z,7.20
2023-04-01T17:33:50.177Z,7.20
2023-04-01T17:36:34.990Z,7.10
2023-04-01T17:39:01.923Z,7.10
2023-04-01T17:41:38.449Z,7.10
2023-04-01T17:44:23.641Z,7.10
2023-04-01T17:46:50.868Z,7.10
2023-04-01T17:49:48.893Z,7.10
2023-04-01T17:52:32.464Z,7.10
2023-04-01T17:55:33.999Z,7.00
2023-04-01T17:58:11.134Z,7.00
2023-04-01T18:00:54.256Z,7.00
2023-04-01T18:04:06.744Z,6.90
2023-04-01T18:07:13.045Z,6.90
2023-04-01T18:10:01.373Z,6.80
2023-04-01T18:12:47.301Z,6.80
2023-04-01T18:15:37.506Z,6.70
2023-04-01T18:18:45.067Z,6.70
2023-04-01T18:21:23.055Z,6.70
2023-04-01T18:24:14.784Z,6.60
2023-04-01T18:26:48.805Z,6.60
2023-04-01T18:29:20.389Z,6.60
2023-04-01T18:31:53.067Z,6.50
2023-04-01T18:34:38.094Z,6.50
2023-04-01T18:37:23.975Z,6.50
2023-04-01T18:40:37.443Z,6.60
2023-04-01T18:43:21.840Z,6.50
2023-04-01T18:46:18.293Z,6.60
2023-04-01T18:49:18.141Z,6.60
2023-04-01T18:52:04.826Z,6.70
2023-04-01T18:54:42.635Z,6.70
2023-04-01T18:57:21.476Z,6.70
2023-04-01T18:59:59.004Z,6.70
2023-04-01T19:02:39.257Z,6.80
2023-04-01T19:05:32.872Z,6.80
2023-04-01T19:08:18.930Z,6.80
2023-04-01T19:10:56.798Z,6.80
2023-04-01T19:13:43.933Z,6.80
2023-04-01T19:16:37.470Z,6.80
2023-04-01T19:19:25.893Z,6.80
2023-04-01T19:22:19.320Z,6.80
2023-04-01T19:25:11.247Z,6.70
2023-04-01T19:27:54.224Z,6.80
2023-04-01T19:30:50.227Z,6.70
2023-04-01T19:33:43.765Z,6.70
2023-04-01T19:36:48.822Z,6.70
2023-04-01T19:39:25.159Z,6.70
2023-04-01T19:42:10.693Z,6.70
2023-04-01T19:45:15.036Z,6.70
2023-04-01T19:48:11.229Z,6.70
2023-04-01T19:51:08.846Z,6.60
2023-04-01T19:53:46.539Z,6.50
2023-04-01T19:56:18.176Z,6.50
2023-04-01T19:59:03.717Z,6.50
2023-04-01T20:01:51.476Z,6.40
2023-04-01T20:04:35.931Z,6.30
2023-04-01T20:07:21.633Z,6.20
2023-04-01T20:10:15.520Z,6.10
2023-04-01T20:13:27.705Z,6.00
2023-04-01T20:16:05.809Z,5.90
2023-04-01T20:18:43.060Z,5.90
2023-04-01T20:21:31.251Z,5.90
2023-04-01T20:24:16.211Z,5.80
2023-04-01T20:26:50.018Z,5.80
2023-04-01T20:29:37.820Z,5.80
2023-04-01T20:32:16.022Z,5.80
2023-04-01T20:34:52.280Z,5.80
2023-04-01T20:37:32.917Z,5.70
2023-04-01T20:40:21.878Z,5.70
2023-04-01T20:42:54.589Z,5.60
2023-04-01T20:46:01.690Z,5.60
2023-04-01T20:48:40.742Z,5.50
2023-04-01T20:51:16.468Z,5.50
2023-04-01T20:54:04.449Z,5.40
2023-04-01T20:56:41.786Z,5.50
2023-04-01T20:59:32.822Z,5.40
2023-04-01T21:02:21.404Z,5.40
2023-04-01T21:05:07.277Z,5.40
2023-04-01T21:07:46.973Z,5.40
2023-04-01T21:10:28.470Z,5.30
2023-04-01T21:13:21.962Z,5.30
2023-04-01T21:15:57.733Z,5.30
2023-04-01T21:19:09.441Z,5.30
2023-04-01T21:22:01.137Z,5.30
2023-04-01T21:25:10.382Z,5.40
2023-04-01T21:27:37.341Z,5.50
2023-04-01T21:30:28.178Z,5.60
2023-04-01T21:33:05.754Z,5.60
2023-04-01T21:35:54.865Z,5.70
2023-04-01T21:38:55.178Z,5.80
2023-04-01T21:41:43.146Z,5.80
2023-04-01T21:44:37.901Z,5.80
2023-04-01T21:47:13.765Z,5.90
2023-04-01T21:50:08.388Z,5.90
2023-04-01T21:52:44.148Z,5.90
2023-04-01T21:55:48.755Z,5.90
2023-04-01T21:59:08.800Z,5.90
2023-04-01T22:02:04.869Z,5.90
2023-04-01T22:04:43.847Z,5.90
2023-04-01T22:07:21.159Z,5.80
2023-04-01T22:09:51.658Z,5.90
2023-04-01T22:12:30.512Z,5.80
2023-04-01T22:15:34.195Z,5.80
2023-04-01T22:18:15.461Z,5.90
2023-04-01T22:21:06.278Z,5.80
2023-04-01T22:23:58.270Z,5.80
2023-04-01T22:26:37.294Z,5.80
2023-04-01T22:29:16.018Z,5.80
2023-04-01T22:32:08.758Z,5.90
2023-04-01T22:35:03.796Z,5.80
2023-04-01T22:38:17.100Z,5.80
2023-04-01T22:41:10.656Z,5.80
2023-04-01T22:43:44.394Z,5.80
2023-04-01T22:46:38.986Z,5.70
2023-04-01T22:49:23.961Z,5.70
2023-04-01T22:51:50.841Z,5.70
2023-04-01T22:54:20.538Z,5.70
2023-04-01T22:56:56.949Z,5.70
2023-04-01T22:59:32.996Z,5.70
2023-04-01T23:02:17.285Z,5.70
2023-04-01T23:04:48.507Z,5.60
2023-04-01T23:07:48.019Z,5.60
2023-04-01T23:10:31.390Z,5.60
2023-04-01T23:13:01.477Z,5.50
2023-04-01T23:15:30.059Z,5.50
2023-04-01T23:18:04.362Z,5.50
2023-04-01T23:20:52.568Z,5.50
2023-04-01T23:23:45.776Z,5.40
2023-04-01T23:26:22.121Z,5.50
2023-04-01T23:28:57.671Z,5.50
2023-04-01T23:31:35.844Z,5.50
2023-04-01T23:34:24.992Z,5.60
2023-04-01T23:36:56.667Z,5.50
2023-04-01T23:39:34.548Z,5.50
2023-04-01T23:42:22.309Z,5.50
2023-04-01T23:44:56.412Z,5.60
2023-04-01T23:47:31.031Z,5.60
2023-04-01T23:50:05.839Z,5.60
2023-04-01T23:52:37.532Z,5.60
2023-04-01T23:55:27.545Z,5.70
2023-04-01T23:58:06.106Z,5.70
